sensor_id;sensor_type;location;lat;lon;timestamp;P1;durP1;ratioP1;P2;durP2;ratioP2
12861;SDS011;6499;66.348;14.134;2024-03-08T00:02:24;2.27;;;1.50;;
12861;SDS011;6499;66.348;14.134;2024-03-08T00:04:52;2.43;;;1.20;;
12861;SDS011;6499;66.348;14.134;2024-03-08T00:07:19;2.10;;;1.20;;
12861;SDS011;6499;66.348;14.134;2024-03-08T00:09:45;1.73;;;1.20;;
12861;SDS011;6499;66.348;14.134;2024-03-08T00:12:13;1.60;;;1.20;;
12861;SDS011;6499;66.348;14.134;2024-03-08T00:14:39;1.07;;;0.90;;
12861;SDS011;6499;66.348;14.134;2024-03-08T00:17:06;1.67;;;0.90;;
12861;SDS011;6499;66.348;14.134;2024-03-08T00:19:34;1.37;;;1.10;;
12861;SDS011;6499;66.348;14.134;2024-03-08T00:22:02;2.07;;;1.30;;
12861;SDS011;6499;66.348;14.134;2024-03-08T00:24:29;1.53;;;1.30;;
12861;SDS011;6499;66.348;14.134;2024-03-08T00:26:56;1.30;;;1.10;;
12861;SDS011;6499;66.348;14.134;2024-03-08T00:29:23;2.47;;;1.60;;
12861;SDS011;6499;66.348;14.134;2024-03-08T00:31:50;1.30;;;1.17;;
12861;SDS011;6499;66.348;14.134;2024-03-08T00:34:17;1.30;;;1.00;;
12861;SDS011;6499;66.348;14.134;2024-03-08T00:36:43;1.27;;;1.10;;
12861;SDS011;6499;66.348;14.134;2024-03-08T00:39:11;1.90;;;1.10;;
12861;SDS011;6499;66.348;14.134;2024-03-08T00:41:38;1.53;;;1.30;;
12861;SDS011;6499;66.348;14.134;2024-03-08T00:44:05;1.30;;;1.17;;
12861;SDS011;6499;66.348;14.134;2024-03-08T00:46:31;2.40;;;1.23;;
12861;SDS011;6499;66.348;14.134;2024-03-08T00:48:59;2.23;;;1.33;;
12861;SDS011;6499;66.348;14.134;2024-03-08T00:51:26;2.60;;;1.27;;
12861;SDS011;6499;66.348;14.134;2024-03-08T00:53:53;1.30;;;1.20;;
12861;SDS011;6499;66.348;14.134;2024-03-08T00:56:21;1.63;;;1.20;;
12861;SDS011;6499;66.348;14.134;2024-03-08T00:58:47;1.87;;;1.20;;
12861;SDS011;6499;66.348;14.134;2024-03-08T01:01:14;2.47;;;1.23;;
12861;SDS011;6499;66.348;14.134;2024-03-08T01:03:42;2.17;;;1.30;;
12861;SDS011;6499;66.348;14.134;2024-03-08T01:06:09;2.13;;;1.30;;
12861;SDS011;6499;66.348;14.134;2024-03-08T01:08:36;2.80;;;1.23;;
12861;SDS011;6499;66.348;14.134;2024-03-08T01:11:03;2.47;;;1.17;;
12861;SDS011;6499;66.348;14.134;2024-03-08T01:13:31;1.40;;;1.27;;
12861;SDS011;6499;66.348;14.134;2024-03-08T01:15:58;2.70;;;1.20;;
12861;SDS011;6499;66.348;14.134;2024-03-08T01:18:24;2.33;;;1.20;;
12861;SDS011;6499;66.348;14.134;2024-03-08T01:20:51;1.30;;;1.10;;
12861;SDS011;6499;66.348;14.134;2024-03-08T01:23:18;3.70;;;1.10;;
12861;SDS011;6499;66.348;14.134;2024-03-08T01:25:45;1.77;;;1.30;;
12861;SDS011;6499;66.348;14.134;2024-03-08T01:28:11;1.70;;;1.53;;
12861;SDS011;6499;66.348;14.134;2024-03-08T01:30:39;2.67;;;1.40;;
12861;SDS011;6499;66.348;14.134;2024-03-08T01:33:07;3.23;;;1.50;;
12861;SDS011;6499;66.348;14.134;2024-03-08T01:35:34;3.27;;;1.37;;
12861;SDS011;6499;66.348;14.134;2024-03-08T01:38:01;1.60;;;1.20;;
12861;SDS011;6499;66.348;14.134;2024-03-08T01:40:30;1.40;;;1.20;;
12861;SDS011;6499;66.348;14.134;2024-03-08T01:42:56;1.73;;;1.20;;
12861;SDS011;6499;66.348;14.134;2024-03-08T01:45:23;1.87;;;1.23;;
12861;SDS011;6499;66.348;14.134;2024-03-08T01:47:51;2.93;;;1.40;;
12861;SDS011;6499;66.348;14.134;2024-03-08T01:50:18;3.17;;;1.30;;
12861;SDS011;6499;66.348;14.134;2024-03-08T01:52:44;2.07;;;1.53;;
12861;SDS011;6499;66.348;14.134;2024-03-08T01:55:11;2.33;;;1.47;;
12861;SDS011;6499;66.348;14.134;2024-03-08T01:57:41;2.00;;;1.30;;
12861;SDS011;6499;66.348;14.134;2024-03-08T02:00:08;2.63;;;1.57;;
12861;SDS011;6499;66.348;14.134;2024-03-08T02:02:36;1.97;;;1.33;;
12861;SDS011;6499;66.348;14.134;2024-03-08T02:05:05;2.17;;;1.40;;
12861;SDS011;6499;66.348;14.134;2024-03-08T02:07:33;3.10;;;1.53;;
12861;SDS011;6499;66.348;14.134;2024-03-08T02:10:00;2.07;;;1.43;;
12861;SDS011;6499;66.348;14.134;2024-03-08T02:12:27;2.50;;;1.53;;
12861;SDS011;6499;66.348;14.134;2024-03-08T02:14:54;2.10;;;1.30;;
12861;SDS011;6499;66.348;14.134;2024-03-08T02:17:21;2.40;;;1.40;;
12861;SDS011;6499;66.348;14.134;2024-03-08T02:19:48;1.90;;;1.60;;
12861;SDS011;6499;66.348;14.134;2024-03-08T02:22:16;2.13;;;1.30;;
12861;SDS011;6499;66.348;14.134;2024-03-08T02:24:42;1.73;;;1.40;;
12861;SDS011;6499;66.348;14.134;2024-03-08T02:27:09;2.20;;;1.40;;
12861;SDS011;6499;66.348;14.134;2024-03-08T02:29:37;1.87;;;1.27;;
12861;SDS011;6499;66.348;14.134;2024-03-08T02:32:06;2.43;;;1.27;;
12861;SDS011;6499;66.348;14.134;2024-03-08T02:34:32;3.40;;;1.90;;
12861;SDS011;6499;66.348;14.134;2024-03-08T02:36:59;2.60;;;1.37;;
12861;SDS011;6499;66.348;14.134;2024-03-08T02:39:27;2.00;;;1.37;;
12861;SDS011;6499;66.348;14.134;2024-03-08T02:41:54;2.00;;;1.10;;
12861;SDS011;6499;66.348;14.134;2024-03-08T02:44:21;2.20;;;1.40;;
12861;SDS011;6499;66.348;14.134;2024-03-08T02:46:48;1.83;;;1.30;;
12861;SDS011;6499;66.348;14.134;2024-03-08T02:49:15;2.70;;;1.40;;
12861;SDS011;6499;66.348;14.134;2024-03-08T02:51:42;2.67;;;1.30;;
12861;SDS011;6499;66.348;14.134;2024-03-08T02:54:09;1.90;;;1.20;;
12861;SDS011;6499;66.348;14.134;2024-03-08T02:56:37;2.83;;;1.30;;
12861;SDS011;6499;66.348;14.134;2024-03-08T02:59:04;2.60;;;1.43;;
12861;SDS011;6499;66.348;14.134;2024-03-08T03:01:31;2.33;;;1.23;;
12861;SDS011;6499;66.348;14.134;2024-03-08T03:03:57;2.17;;;1.40;;
12861;SDS011;6499;66.348;14.134;2024-03-08T03:06:24;4.03;;;1.30;;
12861;SDS011;6499;66.348;14.134;2024-03-08T03:08:51;1.83;;;1.37;;
12861;SDS011;6499;66.348;14.134;2024-03-08T03:11:17;2.93;;;1.30;;
12861;SDS011;6499;66.348;14.134;2024-03-08T03:13:45;2.73;;;1.23;;
12861;SDS011;6499;66.348;14.134;2024-03-08T03:16:16;2.40;;;1.50;;
12861;SDS011;6499;66.348;14.134;2024-03-08T03:18:43;3.90;;;1.43;;
12861;SDS011;6499;66.348;14.134;2024-03-08T03:21:10;2.90;;;1.53;;
12861;SDS011;6499;66.348;14.134;2024-03-08T03:23:38;2.70;;;1.20;;
12861;SDS011;6499;66.348;14.134;2024-03-08T03:26:05;1.20;;;1.10;;
12861;SDS011;6499;66.348;14.134;2024-03-08T03:28:32;3.03;;;1.50;;
12861;SDS011;6499;66.348;14.134;2024-03-08T03:31:13;3.63;;;1.37;;
12861;SDS011;6499;66.348;14.134;2024-03-08T03:33:40;2.30;;;1.40;;
12861;SDS011;6499;66.348;14.134;2024-03-08T03:39:09;3.03;;;1.20;;
12861;SDS011;6499;66.348;14.134;2024-03-08T03:41:41;2.50;;;1.20;;
12861;SDS011;6499;66.348;14.134;2024-03-08T03:44:06;2.03;;;1.40;;
12861;SDS011;6499;66.348;14.134;2024-03-08T03:46:35;2.50;;;1.50;;
12861;SDS011;6499;66.348;14.134;2024-03-08T03:49:02;3.03;;;1.40;;
12861;SDS011;6499;66.348;14.134;2024-03-08T03:51:28;1.93;;;1.33;;
12861;SDS011;6499;66.348;14.134;2024-03-08T03:53:55;2.33;;;1.50;;
12861;SDS011;6499;66.348;14.134;2024-03-08T03:56:24;1.97;;;1.23;;
12861;SDS011;6499;66.348;14.134;2024-03-08T03:58:51;1.17;;;1.07;;
12861;SDS011;6499;66.348;14.134;2024-03-08T04:01:17;2.27;;;1.20;;
12861;SDS011;6499;66.348;14.134;2024-03-08T04:03:46;2.00;;;1.27;;
12861;SDS011;6499;66.348;14.134;2024-03-08T04:06:12;2.17;;;1.10;;
12861;SDS011;6499;66.348;14.134;2024-03-08T04:08:39;2.07;;;1.60;;
12861;SDS011;6499;66.348;14.134;2024-03-08T04:11:06;1.80;;;1.40;;
12861;SDS011;6499;66.348;14.134;2024-03-08T04:13:33;2.90;;;1.87;;
12861;SDS011;6499;66.348;14.134;2024-03-08T04:16:01;4.87;;;1.50;;
12861;SDS011;6499;66.348;14.134;2024-03-08T04:18:27;2.20;;;1.40;;
12861;SDS011;6499;66.348;14.134;2024-03-08T04:20:56;2.10;;;1.40;;
12861;SDS011;6499;66.348;14.134;2024-03-08T04:23:22;1.30;;;1.10;;
12861;SDS011;6499;66.348;14.134;2024-03-08T04:25:49;1.37;;;1.20;;
12861;SDS011;6499;66.348;14.134;2024-03-08T04:28:16;2.73;;;1.50;;
12861;SDS011;6499;66.348;14.134;2024-03-08T04:30:42;2.20;;;1.50;;
12861;SDS011;6499;66.348;14.134;2024-03-08T04:33:11;2.43;;;1.40;;
12861;SDS011;6499;66.348;14.134;2024-03-08T04:35:39;3.00;;;1.37;;
12861;SDS011;6499;66.348;14.134;2024-03-08T04:38:07;2.10;;;1.40;;
12861;SDS011;6499;66.348;14.134;2024-03-08T04:40:35;2.27;;;1.13;;
12861;SDS011;6499;66.348;14.134;2024-03-08T04:43:01;3.20;;;1.20;;
12861;SDS011;6499;66.348;14.134;2024-03-08T04:45:28;1.60;;;1.33;;
12861;SDS011;6499;66.348;14.134;2024-03-08T04:47:55;3.83;;;1.50;;
12861;SDS011;6499;66.348;14.134;2024-03-08T04:50:22;1.60;;;1.40;;
12861;SDS011;6499;66.348;14.134;2024-03-08T04:52:48;3.47;;;1.30;;
12861;SDS011;6499;66.348;14.134;2024-03-08T04:55:16;3.30;;;1.47;;
12861;SDS011;6499;66.348;14.134;2024-03-08T04:57:46;1.97;;;1.60;;
12861;SDS011;6499;66.348;14.134;2024-03-08T05:00:13;2.77;;;2.00;;
12861;SDS011;6499;66.348;14.134;2024-03-08T05:02:40;3.83;;;1.40;;
12861;SDS011;6499;66.348;14.134;2024-03-08T05:05:07;1.80;;;1.37;;
12861;SDS011;6499;66.348;14.134;2024-03-08T05:07:34;1.37;;;1.20;;
12861;SDS011;6499;66.348;14.134;2024-03-08T05:10:01;2.70;;;1.57;;
12861;SDS011;6499;66.348;14.134;2024-03-08T05:12:32;2.30;;;1.37;;
12861;SDS011;6499;66.348;14.134;2024-03-08T05:14:59;2.43;;;1.60;;
12861;SDS011;6499;66.348;14.134;2024-03-08T05:17:25;2.80;;;1.50;;
12861;SDS011;6499;66.348;14.134;2024-03-08T05:19:53;3.77;;;1.63;;
12861;SDS011;6499;66.348;14.134;2024-03-08T05:22:19;4.67;;;1.80;;
12861;SDS011;6499;66.348;14.134;2024-03-08T05:24:46;2.20;;;1.80;;
12861;SDS011;6499;66.348;14.134;2024-03-08T05:27:12;2.93;;;1.97;;
12861;SDS011;6499;66.348;14.134;2024-03-08T05:29:41;4.00;;;1.97;;
12861;SDS011;6499;66.348;14.134;2024-03-08T05:32:07;2.80;;;1.90;;
12861;SDS011;6499;66.348;14.134;2024-03-08T05:34:35;2.13;;;1.90;;
12861;SDS011;6499;66.348;14.134;2024-03-08T05:37:01;2.70;;;1.67;;
12861;SDS011;6499;66.348;14.134;2024-03-08T05:39:28;2.97;;;2.10;;
12861;SDS011;6499;66.348;14.134;2024-03-08T05:41:55;3.90;;;1.97;;
12861;SDS011;6499;66.348;14.134;2024-03-08T05:44:21;1.90;;;1.50;;
12861;SDS011;6499;66.348;14.134;2024-03-08T05:46:49;1.60;;;1.40;;
12861;SDS011;6499;66.348;14.134;2024-03-08T05:49:16;3.90;;;1.60;;
12861;SDS011;6499;66.348;14.134;2024-03-08T05:54:32;3.73;;;1.30;;
12861;SDS011;6499;66.348;14.134;2024-03-08T05:56:58;4.53;;;2.17;;
12861;SDS011;6499;66.348;14.134;2024-03-08T05:59:25;2.60;;;1.70;;
12861;SDS011;6499;66.348;14.134;2024-03-08T06:01:53;3.40;;;1.53;;
12861;SDS011;6499;66.348;14.134;2024-03-08T06:04:24;2.77;;;1.63;;
12861;SDS011;6499;66.348;14.134;2024-03-08T06:06:52;2.43;;;1.47;;
12861;SDS011;6499;66.348;14.134;2024-03-08T06:09:21;2.30;;;1.70;;
12861;SDS011;6499;66.348;14.134;2024-03-08T06:11:48;3.50;;;1.90;;
12861;SDS011;6499;66.348;14.134;2024-03-08T06:14:15;2.53;;;1.77;;
12861;SDS011;6499;66.348;14.134;2024-03-08T06:16:43;2.80;;;2.10;;
12861;SDS011;6499;66.348;14.134;2024-03-08T06:19:12;3.23;;;2.13;;
12861;SDS011;6499;66.348;14.134;2024-03-08T06:21:38;5.20;;;2.50;;
12861;SDS011;6499;66.348;14.134;2024-03-08T06:24:06;4.37;;;2.40;;
12861;SDS011;6499;66.348;14.134;2024-03-08T06:26:32;4.17;;;2.10;;
12861;SDS011;6499;66.348;14.134;2024-03-08T06:28:59;2.53;;;2.07;;
12861;SDS011;6499;66.348;14.134;2024-03-08T06:31:26;6.10;;;1.90;;
12861;SDS011;6499;66.348;14.134;2024-03-08T06:33:52;3.33;;;2.13;;
12861;SDS011;6499;66.348;14.134;2024-03-08T06:36:21;3.30;;;2.20;;
12861;SDS011;6499;66.348;14.134;2024-03-08T06:38:47;3.27;;;2.27;;
12861;SDS011;6499;66.348;14.134;2024-03-08T06:41:14;3.83;;;2.67;;
12861;SDS011;6499;66.348;14.134;2024-03-08T06:43:41;3.37;;;2.23;;
12861;SDS011;6499;66.348;14.134;2024-03-08T06:46:08;2.13;;;1.93;;
12861;SDS011;6499;66.348;14.134;2024-03-08T06:48:35;3.37;;;2.10;;
12861;SDS011;6499;66.348;14.134;2024-03-08T06:51:02;3.37;;;2.00;;
12861;SDS011;6499;66.348;14.134;2024-03-08T06:53:30;3.90;;;2.00;;
12861;SDS011;6499;66.348;14.134;2024-03-08T06:55:57;1.73;;;1.60;;
12861;SDS011;6499;66.348;14.134;2024-03-08T06:58:24;3.53;;;1.87;;
12861;SDS011;6499;66.348;14.134;2024-03-08T07:00:50;2.87;;;2.00;;
12861;SDS011;6499;66.348;14.134;2024-03-08T07:03:18;2.77;;;2.03;;
12861;SDS011;6499;66.348;14.134;2024-03-08T07:05:45;3.53;;;1.73;;
12861;SDS011;6499;66.348;14.134;2024-03-08T07:08:12;3.27;;;1.90;;
12861;SDS011;6499;66.348;14.134;2024-03-08T07:10:40;2.53;;;1.63;;
12861;SDS011;6499;66.348;14.134;2024-03-08T07:13:07;2.33;;;1.70;;
12861;SDS011;6499;66.348;14.134;2024-03-08T07:15:35;4.27;;;2.20;;
12861;SDS011;6499;66.348;14.134;2024-03-08T07:18:02;2.60;;;1.73;;
12861;SDS011;6499;66.348;14.134;2024-03-08T07:20:29;3.67;;;2.10;;
12861;SDS011;6499;66.348;14.134;2024-03-08T07:22:55;2.27;;;1.97;;
12861;SDS011;6499;66.348;14.134;2024-03-08T07:25:22;3.57;;;2.60;;
12861;SDS011;6499;66.348;14.134;2024-03-08T07:27:51;4.13;;;2.70;;
12861;SDS011;6499;66.348;14.134;2024-03-08T07:30:18;3.80;;;2.50;;
12861;SDS011;6499;66.348;14.134;2024-03-08T07:33:02;3.00;;;2.50;;
12861;SDS011;6499;66.348;14.134;2024-03-08T07:35:29;4.90;;;2.33;;
12861;SDS011;6499;66.348;14.134;2024-03-08T07:37:56;4.50;;;2.87;;
12861;SDS011;6499;66.348;14.134;2024-03-08T07:40:25;4.70;;;2.20;;
12861;SDS011;6499;66.348;14.134;2024-03-08T07:42:53;4.77;;;2.77;;
12861;SDS011;6499;66.348;14.134;2024-03-08T07:45:19;4.93;;;2.47;;
12861;SDS011;6499;66.348;14.134;2024-03-08T07:47:47;3.97;;;2.20;;
12861;SDS011;6499;66.348;14.134;2024-03-08T07:50:13;5.90;;;2.90;;
12861;SDS011;6499;66.348;14.134;2024-03-08T07:52:41;3.77;;;2.50;;
12861;SDS011;6499;66.348;14.134;2024-03-08T07:55:08;3.13;;;2.40;;
12861;SDS011;6499;66.348;14.134;2024-03-08T07:57:35;7.57;;;3.93;;
12861;SDS011;6499;66.348;14.134;2024-03-08T08:00:05;6.47;;;4.20;;
12861;SDS011;6499;66.348;14.134;2024-03-08T08:02:33;5.80;;;3.47;;
12861;SDS011;6499;66.348;14.134;2024-03-08T08:05:00;3.63;;;2.73;;
12861;SDS011;6499;66.348;14.134;2024-03-08T08:07:27;4.40;;;3.00;;
12861;SDS011;6499;66.348;14.134;2024-03-08T08:09:54;4.07;;;3.10;;
12861;SDS011;6499;66.348;14.134;2024-03-08T08:12:20;3.93;;;2.77;;
12861;SDS011;6499;66.348;14.134;2024-03-08T08:14:47;5.50;;;2.63;;
12861;SDS011;6499;66.348;14.134;2024-03-08T08:17:15;3.60;;;2.53;;
12861;SDS011;6499;66.348;14.134;2024-03-08T08:19:41;4.90;;;2.93;;
12861;SDS011;6499;66.348;14.134;2024-03-08T08:22:08;4.97;;;2.87;;
12861;SDS011;6499;66.348;14.134;2024-03-08T08:24:35;3.27;;;2.30;;
12861;SDS011;6499;66.348;14.134;2024-03-08T08:27:02;7.00;;;3.77;;
12861;SDS011;6499;66.348;14.134;2024-03-08T08:29:29;9.73;;;5.40;;
12861;SDS011;6499;66.348;14.134;2024-03-08T08:31:57;10.13;;;5.30;;
12861;SDS011;6499;66.348;14.134;2024-03-08T08:34:25;4.63;;;3.00;;
12861;SDS011;6499;66.348;14.134;2024-03-08T08:36:52;4.80;;;2.30;;
12861;SDS011;6499;66.348;14.134;2024-03-08T08:39:19;5.03;;;2.50;;
12861;SDS011;6499;66.348;14.134;2024-03-08T08:41:48;3.40;;;2.33;;
12861;SDS011;6499;66.348;14.134;2024-03-08T08:44:14;3.70;;;2.10;;
12861;SDS011;6499;66.348;14.134;2024-03-08T08:46:41;2.87;;;2.20;;
12861;SDS011;6499;66.348;14.134;2024-03-08T08:49:07;4.43;;;2.60;;
12861;SDS011;6499;66.348;14.134;2024-03-08T08:51:37;5.30;;;2.33;;
12861;SDS011;6499;66.348;14.134;2024-03-08T08:54:03;2.47;;;1.57;;
12861;SDS011;6499;66.348;14.134;2024-03-08T08:56:31;3.40;;;1.90;;
12861;SDS011;6499;66.348;14.134;2024-03-08T08:58:58;3.40;;;2.20;;
12861;SDS011;6499;66.348;14.134;2024-03-08T09:01:24;3.67;;;2.33;;
12861;SDS011;6499;66.348;14.134;2024-03-08T09:03:51;5.10;;;3.30;;
12861;SDS011;6499;66.348;14.134;2024-03-08T09:06:19;12.40;;;5.30;;
12861;SDS011;6499;66.348;14.134;2024-03-08T09:08:47;6.93;;;4.30;;
12861;SDS011;6499;66.348;14.134;2024-03-08T09:11:13;6.13;;;3.70;;
12861;SDS011;6499;66.348;14.134;2024-03-08T09:13:40;4.80;;;3.73;;
12861;SDS011;6499;66.348;14.134;2024-03-08T09:16:07;4.70;;;2.80;;
12861;SDS011;6499;66.348;14.134;2024-03-08T09:18:35;3.30;;;2.50;;
12861;SDS011;6499;66.348;14.134;2024-03-08T09:21:02;5.63;;;3.37;;
12861;SDS011;6499;66.348;14.134;2024-03-08T09:23:30;5.33;;;3.40;;
12861;SDS011;6499;66.348;14.134;2024-03-08T09:25:58;4.90;;;4.00;;
12861;SDS011;6499;66.348;14.134;2024-03-08T09:28:24;5.23;;;3.50;;
12861;SDS011;6499;66.348;14.134;2024-03-08T09:30:52;5.53;;;3.70;;
12861;SDS011;6499;66.348;14.134;2024-03-08T09:33:20;6.93;;;4.07;;
12861;SDS011;6499;66.348;14.134;2024-03-08T09:35:47;4.40;;;3.10;;
12861;SDS011;6499;66.348;14.134;2024-03-08T09:38:13;3.93;;;2.83;;
12861;SDS011;6499;66.348;14.134;2024-03-08T09:40:40;4.17;;;1.97;;
12861;SDS011;6499;66.348;14.134;2024-03-08T09:43:08;3.57;;;1.97;;
12861;SDS011;6499;66.348;14.134;2024-03-08T09:45:37;3.20;;;2.23;;
12861;SDS011;6499;66.348;14.134;2024-03-08T09:48:06;3.07;;;1.90;;
12861;SDS011;6499;66.348;14.134;2024-03-08T09:50:34;2.93;;;2.20;;
12861;SDS011;6499;66.348;14.134;2024-03-08T09:53:01;3.57;;;1.97;;
12861;SDS011;6499;66.348;14.134;2024-03-08T09:55:28;2.03;;;1.67;;
12861;SDS011;6499;66.348;14.134;2024-03-08T09:57:59;3.37;;;1.90;;
12861;SDS011;6499;66.348;14.134;2024-03-08T10:00:44;3.87;;;2.17;;
12861;SDS011;6499;66.348;14.134;2024-03-08T10:03:11;5.07;;;2.10;;
12861;SDS011;6499;66.348;14.134;2024-03-08T10:05:39;2.90;;;1.90;;
12861;SDS011;6499;66.348;14.134;2024-03-08T10:08:06;3.40;;;1.83;;
12861;SDS011;6499;66.348;14.134;2024-03-08T10:10:33;3.13;;;2.40;;
12861;SDS011;6499;66.348;14.134;2024-03-08T10:13:00;3.87;;;3.00;;
12861;SDS011;6499;66.348;14.134;2024-03-08T10:15:27;3.50;;;3.10;;
12861;SDS011;6499;66.348;14.134;2024-03-08T10:17:56;3.77;;;2.10;;
12861;SDS011;6499;66.348;14.134;2024-03-08T10:20:23;4.27;;;2.30;;
12861;SDS011;6499;66.348;14.134;2024-03-08T10:22:51;2.67;;;2.23;;
12861;SDS011;6499;66.348;14.134;2024-03-08T10:25:19;3.50;;;2.33;;
12861;SDS011;6499;66.348;14.134;2024-03-08T10:27:45;3.13;;;2.13;;
12861;SDS011;6499;66.348;14.134;2024-03-08T10:30:13;4.27;;;2.53;;
12861;SDS011;6499;66.348;14.134;2024-03-08T10:32:41;4.80;;;2.83;;
12861;SDS011;6499;66.348;14.134;2024-03-08T10:35:09;6.30;;;2.63;;
12861;SDS011;6499;66.348;14.134;2024-03-08T10:37:39;8.70;;;2.97;;
12861;SDS011;6499;66.348;14.134;2024-03-08T10:40:08;4.57;;;2.33;;
12861;SDS011;6499;66.348;14.134;2024-03-08T10:42:41;6.70;;;2.50;;
12861;SDS011;6499;66.348;14.134;2024-03-08T10:45:10;3.70;;;2.33;;
12861;SDS011;6499;66.348;14.134;2024-03-08T10:47:41;4.87;;;2.63;;
12861;SDS011;6499;66.348;14.134;2024-03-08T10:50:17;6.77;;;2.97;;
12861;SDS011;6499;66.348;14.134;2024-03-08T10:52:46;3.47;;;2.13;;
12861;SDS011;6499;66.348;14.134;2024-03-08T10:55:13;3.93;;;2.53;;
12861;SDS011;6499;66.348;14.134;2024-03-08T10:57:42;3.20;;;2.37;;
12861;SDS011;6499;66.348;14.134;2024-03-08T11:00:09;4.37;;;2.57;;
12861;SDS011;6499;66.348;14.134;2024-03-08T11:02:37;3.87;;;2.63;;
12861;SDS011;6499;66.348;14.134;2024-03-08T11:05:04;4.20;;;2.60;;
12861;SDS011;6499;66.348;14.134;2024-03-08T11:07:34;3.80;;;2.50;;
12861;SDS011;6499;66.348;14.134;2024-03-08T11:10:02;3.63;;;2.87;;
12861;SDS011;6499;66.348;14.134;2024-03-08T11:12:29;4.60;;;2.67;;
12861;SDS011;6499;66.348;14.134;2024-03-08T11:15:02;4.13;;;2.60;;
12861;SDS011;6499;66.348;14.134;2024-03-08T11:17:40;2.57;;;2.23;;
12861;SDS011;6499;66.348;14.134;2024-03-08T11:20:10;4.10;;;2.50;;
12861;SDS011;6499;66.348;14.134;2024-03-08T11:22:42;4.80;;;2.40;;
12861;SDS011;6499;66.348;14.134;2024-03-08T11:33:30;4.85;;;3.40;;
12861;SDS011;6499;66.348;14.134;2024-03-08T11:36:02;3.77;;;2.93;;
12861;SDS011;6499;66.348;14.134;2024-03-08T11:38:34;6.43;;;2.90;;
12861;SDS011;6499;66.348;14.134;2024-03-08T11:41:06;4.87;;;3.07;;
12861;SDS011;6499;66.348;14.134;2024-03-08T11:43:33;4.50;;;2.70;;
12861;SDS011;6499;66.348;14.134;2024-03-08T11:46:07;5.60;;;3.27;;
12861;SDS011;6499;66.348;14.134;2024-03-08T11:48:34;4.60;;;3.27;;
12861;SDS011;6499;66.348;14.134;2024-03-08T11:51:01;7.00;;;4.50;;
12861;SDS011;6499;66.348;14.134;2024-03-08T11:53:28;5.27;;;4.20;;
12861;SDS011;6499;66.348;14.134;2024-03-08T11:55:56;5.57;;;3.47;;
12861;SDS011;6499;66.348;14.134;2024-03-08T11:58:31;5.07;;;3.33;;
12861;SDS011;6499;66.348;14.134;2024-03-08T12:01:02;5.43;;;3.40;;
12861;SDS011;6499;66.348;14.134;2024-03-08T12:03:33;8.07;;;3.60;;
12861;SDS011;6499;66.348;14.134;2024-03-08T12:06:00;4.67;;;3.10;;
12861;SDS011;6499;66.348;14.134;2024-03-08T12:08:30;6.50;;;3.50;;
12861;SDS011;6499;66.348;14.134;2024-03-08T12:10:58;4.63;;;2.90;;
12861;SDS011;6499;66.348;14.134;2024-03-08T12:13:25;6.47;;;3.47;;
12861;SDS011;6499;66.348;14.134;2024-03-08T12:15:55;5.73;;;3.27;;
12861;SDS011;6499;66.348;14.134;2024-03-08T12:18:22;5.37;;;2.83;;
12861;SDS011;6499;66.348;14.134;2024-03-08T12:20:48;6.03;;;3.30;;
12861;SDS011;6499;66.348;14.134;2024-03-08T12:23:15;5.43;;;3.47;;
12861;SDS011;6499;66.348;14.134;2024-03-08T12:25:42;7.17;;;3.23;;
12861;SDS011;6499;66.348;14.134;2024-03-08T12:28:11;5.77;;;3.00;;
12861;SDS011;6499;66.348;14.134;2024-03-08T12:30:45;4.73;;;3.40;;
12861;SDS011;6499;66.348;14.134;2024-03-08T12:33:12;6.07;;;3.40;;
12861;SDS011;6499;66.348;14.134;2024-03-08T12:35:38;3.77;;;2.93;;
12861;SDS011;6499;66.348;14.134;2024-03-08T12:38:05;6.43;;;3.10;;
12861;SDS011;6499;66.348;14.134;2024-03-08T12:40:33;4.57;;;2.57;;
12861;SDS011;6499;66.348;14.134;2024-03-08T12:43:05;3.43;;;2.50;;
12861;SDS011;6499;66.348;14.134;2024-03-08T12:45:33;5.53;;;3.10;;
12861;SDS011;6499;66.348;14.134;2024-03-08T12:48:00;4.73;;;2.97;;
12861;SDS011;6499;66.348;14.134;2024-03-08T12:50:28;5.07;;;2.80;;
12861;SDS011;6499;66.348;14.134;2024-03-08T12:52:55;3.17;;;2.60;;
12861;SDS011;6499;66.348;14.134;2024-03-08T12:55:22;3.93;;;2.63;;
12861;SDS011;6499;66.348;14.134;2024-03-08T12:57:48;4.83;;;3.47;;
12861;SDS011;6499;66.348;14.134;2024-03-08T13:00:18;6.07;;;3.50;;
12861;SDS011;6499;66.348;14.134;2024-03-08T13:02:46;7.03;;;3.57;;
12861;SDS011;6499;66.348;14.134;2024-03-08T13:05:15;5.13;;;3.10;;
12861;SDS011;6499;66.348;14.134;2024-03-08T13:07:42;6.77;;;3.80;;
12861;SDS011;6499;66.348;14.134;2024-03-08T13:10:11;7.93;;;4.10;;
12861;SDS011;6499;66.348;14.134;2024-03-08T13:12:39;6.63;;;3.70;;
12861;SDS011;6499;66.348;14.134;2024-03-08T13:15:07;4.53;;;3.13;;
12861;SDS011;6499;66.348;14.134;2024-03-08T13:17:34;4.70;;;3.50;;
12861;SDS011;6499;66.348;14.134;2024-03-08T13:20:02;5.43;;;3.73;;
12861;SDS011;6499;66.348;14.134;2024-03-08T13:22:30;5.67;;;3.57;;
12861;SDS011;6499;66.348;14.134;2024-03-08T13:24:57;5.70;;;3.73;;
12861;SDS011;6499;66.348;14.134;2024-03-08T13:27:26;5.37;;;3.80;;
12861;SDS011;6499;66.348;14.134;2024-03-08T13:29:53;6.30;;;3.80;;
12861;SDS011;6499;66.348;14.134;2024-03-08T13:32:19;9.80;;;5.20;;
12861;SDS011;6499;66.348;14.134;2024-03-08T13:34:47;9.77;;;5.40;;
12861;SDS011;6499;66.348;14.134;2024-03-08T13:37:17;8.40;;;4.70;;
12861;SDS011;6499;66.348;14.134;2024-03-08T13:39:44;8.10;;;4.47;;
12861;SDS011;6499;66.348;14.134;2024-03-08T13:42:11;9.00;;;4.50;;
12861;SDS011;6499;66.348;14.134;2024-03-08T13:44:44;8.90;;;4.60;;
12861;SDS011;6499;66.348;14.134;2024-03-08T13:47:11;8.13;;;4.50;;
12861;SDS011;6499;66.348;14.134;2024-03-08T13:49:38;7.73;;;4.97;;
12861;SDS011;6499;66.348;14.134;2024-03-08T13:52:07;8.00;;;5.20;;
12861;SDS011;6499;66.348;14.134;2024-03-08T13:54:36;10.07;;;5.60;;
12861;SDS011;6499;66.348;14.134;2024-03-08T13:57:03;10.23;;;5.53;;
12861;SDS011;6499;66.348;14.134;2024-03-08T13:59:30;9.40;;;5.53;;
12861;SDS011;6499;66.348;14.134;2024-03-08T14:01:58;11.17;;;5.80;;
12861;SDS011;6499;66.348;14.134;2024-03-08T14:04:25;10.27;;;5.33;;
12861;SDS011;6499;66.348;14.134;2024-03-08T14:06:52;7.97;;;4.60;;
12861;SDS011;6499;66.348;14.134;2024-03-08T14:09:22;4.33;;;3.60;;
12861;SDS011;6499;66.348;14.134;2024-03-08T14:11:51;6.43;;;3.70;;
12861;SDS011;6499;66.348;14.134;2024-03-08T14:14:20;5.73;;;3.80;;
12861;SDS011;6499;66.348;14.134;2024-03-08T14:16:48;4.57;;;3.40;;
12861;SDS011;6499;66.348;14.134;2024-03-08T14:19:17;4.63;;;3.30;;
12861;SDS011;6499;66.348;14.134;2024-03-08T14:21:44;6.83;;;3.87;;
12861;SDS011;6499;66.348;14.134;2024-03-08T14:24:14;7.07;;;3.70;;
12861;SDS011;6499;66.348;14.134;2024-03-08T14:26:41;5.07;;;2.90;;
12861;SDS011;6499;66.348;14.134;2024-03-08T14:29:09;7.07;;;3.60;;
12861;SDS011;6499;66.348;14.134;2024-03-08T14:31:36;6.33;;;3.70;;
12861;SDS011;6499;66.348;14.134;2024-03-08T14:34:03;6.57;;;3.93;;
12861;SDS011;6499;66.348;14.134;2024-03-08T14:36:29;5.70;;;4.60;;
12861;SDS011;6499;66.348;14.134;2024-03-08T14:38:56;6.57;;;3.80;;
12861;SDS011;6499;66.348;14.134;2024-03-08T14:41:23;6.50;;;4.20;;
12861;SDS011;6499;66.348;14.134;2024-03-08T14:43:49;4.93;;;4.13;;
12861;SDS011;6499;66.348;14.134;2024-03-08T14:46:19;5.47;;;4.00;;
12861;SDS011;6499;66.348;14.134;2024-03-08T14:48:48;7.10;;;4.17;;
12861;SDS011;6499;66.348;14.134;2024-03-08T14:51:16;6.13;;;4.50;;
12861;SDS011;6499;66.348;14.134;2024-03-08T14:53:47;9.07;;;4.57;;
12861;SDS011;6499;66.348;14.134;2024-03-08T14:56:14;9.13;;;4.60;;
12861;SDS011;6499;66.348;14.134;2024-03-08T14:58:41;4.90;;;3.83;;
12861;SDS011;6499;66.348;14.134;2024-03-08T15:01:09;5.80;;;4.20;;
12861;SDS011;6499;66.348;14.134;2024-03-08T15:03:37;11.60;;;7.23;;
12861;SDS011;6499;66.348;14.134;2024-03-08T15:06:04;11.67;;;6.87;;